Time;durP1;ratioP1;P1;durP2;ratioP2;P2;SDS_P1;SDS_P2;PMS_P1;PMS_P2;Temp;Humidity;BMP_temperature;BMP_pressure;BME280_temperature;BME280_humidity;BME280_pressure;Samples;Min_cycle;Max_cycle;Signal;HPM_P1;HPM_P2
2023/08/25 00:02:18;;;;;;;0.55;0.55;;;18.50;99.90;;;;;;4919602;29;20236;-71
2023/08/25 00:04:45;;;;;;;0.60;0.60;;;18.50;99.90;;;;;;4919850;29;20209;-71
2023/08/25 00:07:11;;;;;;;0.40;0.40;;;18.50;99.90;;;;;;4919511;29;20225;-72
2023/08/25 00:09:38;;;;;;;0.60;0.60;;;18.40;99.90;;;;;;4919563;29;20213;-71
2023/08/25 00:12:06;;;;;;;0.50;0.50;;;18.50;99.90;;;;;;4919781;29;20208;-71
2023/08/25 00:14:32;;;;;;;0.60;0.60;;;18.50;99.90;;;;;;4919461;29;20546;-71
2023/08/25 00:16:59;;;;;;;0.70;0.70;;;18.50;99.90;;;;;;4919394;29;20225;-71
2023/08/25 00:19:27;;;;;;;0.80;0.80;;;18.50;99.90;;;;;;4919446;29;20212;-71
2023/08/25 00:21:54;;;;;;;0.70;0.70;;;18.50;99.90;;;;;;4919018;29;20225;-69
2023/08/25 00:24:20;;;;;;;0.52;0.52;;;18.60;99.90;;;;;;4918948;29;20576;-70
2023/08/25 00:26:47;;;;;;;0.50;0.50;;;18.60;99.90;;;;;;4919198;29;20236;-71
2023/08/25 00:29:14;;;;;;;1.60;1.08;;;18.60;99.90;;;;;;4919163;29;20673;-71
2023/08/25 00:31:41;;;;;;;0.95;0.95;;;18.60;99.90;;;;;;4919168;29;20205;-71
2023/08/25 00:34:07;;;;;;;2.80;1.20;;;18.60;99.90;;;;;;4919107;29;20220;-70
2023/08/25 00:36:35;;;;;;;1.45;1.45;;;18.60;99.90;;;;;;4918781;29;20237;-71
2023/08/25 00:39:02;;;;;;;1.15;1.15;;;18.50;99.90;;;;;;4918737;29;20700;-70
2023/08/25 00:41:29;;;;;;;1.20;1.20;;;18.40;99.90;;;;;;4918952;29;20236;-70
2023/08/25 00:43:55;;;;;;;1.20;1.20;;;18.40;99.90;;;;;;4918900;29;20212;-70
2023/08/25 00:46:23;;;;;;;0.88;0.88;;;18.50;99.90;;;;;;4918872;29;20225;-71
2023/08/25 00:48:50;;;;;;;1.10;1.10;;;18.50;99.90;;;;;;4918880;29;20201;-70
2023/08/25 00:51:17;;;;;;;0.90;0.90;;;18.50;99.90;;;;;;4918495;29;20681;-70
2023/08/25 00:53:47;;;;;;;0.70;0.70;;;18.50;99.90;;;;;;4918835;29;20613;-71
2023/08/25 00:56:14;;;;;;;0.90;0.90;;;18.60;99.90;;;;;;4918669;29;20229;-71
2023/08/25 00:58:41;;;;;;;2.92;1.65;;;18.50;99.90;;;;;;4918639;29;20212;-71
2023/08/25 01:01:08;;;;;;;1.63;1.52;;;18.40;99.90;;;;;;4918514;29;20237;-70
2023/08/25 01:03:38;;;;;;;1.38;1.38;;;18.40;99.90;;;;;;4918605;29;20209;-70
2023/08/25 01:06:05;;;;;;;1.17;1.17;;;18.40;99.90;;;;;;4918419;29;20280;-70
2023/08/25 01:08:32;;;;;;;1.52;1.52;;;18.40;99.90;;;;;;4918495;29;20209;-70
2023/08/25 01:11:09;;;;;;;1.23;1.23;;;18.50;99.90;;;;;;4918483;29;20232;-70
2023/08/25 01:13:45;;;;;;;1.10;1.10;;;18.50;99.90;;;;;;4918463;29;20193;-70
2023/08/25 01:16:16;;;;;;;1.20;1.20;;;18.60;99.90;;;;;;4918314;29;20228;-70
2023/08/25 01:18:44;;;;;;;1.10;1.10;;;18.60;99.90;;;;;;4918358;29;20288;-70
2023/08/25 01:21:12;;;;;;;0.98;0.98;;;18.60;99.90;;;;;;4918623;29;20229;-70
2023/08/25 01:23:47;;;;;;;1.60;1.50;;;18.60;99.90;;;;;;4918619;29;20232;-70
2023/08/25 01:26:16;;;;;;;1.42;1.42;;;18.60;99.90;;;;;;4920948;29;20220;-71
2023/08/25 01:28:43;;;;;;;1.40;1.30;;;18.60;99.90;;;;;;4918357;29;20209;-71
2023/08/25 01:31:10;;;;;;;1.45;1.38;;;18.70;99.90;;;;;;4918063;29;20669;-71
2023/08/25 01:33:39;;;;;;;1.23;1.23;;;18.70;99.90;;;;;;4917785;29;20212;-71
2023/08/25 01:36:17;;;;;;;1.20;1.20;;;18.80;99.90;;;;;;4918279;29;20244;-72
2023/08/25 01:38:52;;;;;;;1.00;1.00;;;18.90;99.90;;;;;;4917983;29;20193;-72
2023/08/25 01:41:27;;;;;;;0.80;0.80;;;18.90;99.90;;;;;;4917570;29;20707;-72
2023/08/25 01:43:55;;;;;;;0.77;0.77;;;18.90;99.90;;;;;;4917909;29;20193;-72
2023/08/25 01:46:23;;;;;;;0.90;0.90;;;19.00;99.90;;;;;;4917745;29;20229;-72
2023/08/25 01:48:54;;;;;;;1.40;1.40;;;19.00;99.90;;;;;;4917752;29;20209;-72
2023/08/25 01:51:21;;;;;;;1.25;1.25;;;18.90;99.90;;;;;;4917810;29;20192;-72
2023/08/25 01:53:54;;;;;;;1.60;1.60;;;18.90;99.90;;;;;;4917716;29;20207;-70
2023/08/25 01:56:23;;;;;;;1.75;1.75;;;18.80;99.90;;;;;;4917667;29;20225;-70
2023/08/25 01:58:50;;;;;;;2.00;1.95;;;18.70;99.90;;;;;;4917639;29;20242;-70
2023/08/25 02:01:17;;;;;;;1.40;1.40;;;18.70;99.90;;;;;;4917548;29;20221;-70
2023/08/25 02:03:43;;;;;;;1.65;1.55;;;18.70;99.90;;;;;;4917284;29;20553;-71
2023/08/25 02:06:10;;;;;;;1.40;1.40;;;18.70;99.90;;;;;;4917773;29;20232;-72
2023/08/25 02:08:37;;;;;;;1.27;1.27;;;18.70;99.90;;;;;;4917211;29;20577;-71
2023/08/25 02:11:04;;;;;;;1.15;1.15;;;18.70;99.90;;;;;;4917447;29;20208;-72
2023/08/25 02:13:32;;;;;;;1.10;1.10;;;18.70;99.90;;;;;;4917622;29;20209;-72
2023/08/25 02:15:59;;;;;;;0.93;0.93;;;18.70;99.90;;;;;;4917376;29;20236;-71
2023/08/25 02:18:26;;;;;;;0.90;0.90;;;18.70;99.90;;;;;;4917461;29;20244;-71
2023/08/25 02:20:55;;;;;;;0.80;0.80;;;18.70;99.90;;;;;;4917089;29;20213;-71
2023/08/25 02:23:22;;;;;;;0.70;0.70;;;18.70;99.90;;;;;;4917372;29;20205;-71
2023/08/25 02:25:49;;;;;;;0.70;0.70;;;18.60;99.90;;;;;;4917268;29;20256;-71
2023/08/25 02:28:15;;;;;;;0.70;0.70;;;18.60;99.90;;;;;;4917270;29;20208;-71
2023/08/25 02:30:43;;;;;;;0.70;0.70;;;18.60;99.90;;;;;;4916944;29;20685;-71
2023/08/25 02:33:10;;;;;;;0.77;0.77;;;18.50;99.90;;;;;;4916974;29;20692;-71
2023/08/25 02:35:37;;;;;;;0.75;0.75;;;18.60;99.90;;;;;;4916942;29;20237;-71
2023/08/25 02:38:05;;;;;;;0.90;0.90;;;18.50;99.90;;;;;;4917271;29;20200;-71
2023/08/25 02:40:33;;;;;;;0.80;0.80;;;18.60;99.90;;;;;;4918033;29;20205;-71
2023/08/25 02:43:00;;;;;;;0.80;0.80;;;18.60;99.90;;;;;;4917200;29;20220;-71
2023/08/25 02:45:28;;;;;;;0.70;0.70;;;18.60;99.90;;;;;;4920231;29;20240;-71
2023/08/25 02:47:56;;;;;;;0.63;0.63;;;18.70;99.90;;;;;;4921024;29;20209;-71
2023/08/25 02:50:23;;;;;;;0.65;0.65;;;18.70;99.90;;;;;;4920833;29;20215;-71
2023/08/25 02:52:50;;;;;;;0.73;0.73;;;18.70;99.90;;;;;;4920868;29;20213;-72
2023/08/25 02:55:19;;;;;;;0.70;0.70;;;18.70;99.90;;;;;;4920695;29;20228;-72
2023/08/25 02:57:46;;;;;;;0.90;0.90;;;18.70;99.90;;;;;;4920780;29;20205;-72
2023/08/25 03:00:14;;;;;;;0.73;0.73;;;18.70;99.90;;;;;;4920388;29;20700;-72
2023/08/25 03:02:41;;;;;;;0.90;0.90;;;18.70;99.90;;;;;;4920844;29;20269;-71
2023/08/25 03:05:10;;;;;;;0.90;0.90;;;18.70;99.90;;;;;;4920723;29;20576;-72
2023/08/25 03:07:37;;;;;;;0.82;0.82;;;18.70;99.90;;;;;;4920640;29;20209;-71
2023/08/25 03:10:04;;;;;;;0.70;0.70;;;18.70;99.90;;;;;;4920603;29;20209;-71
2023/08/25 03:12:31;;;;;;;0.80;0.80;;;18.70;99.90;;;;;;4920533;29;20205;-71
2023/08/25 03:14:58;;;;;;;0.70;0.70;;;18.70;99.90;;;;;;4920360;29;20205;-71
2023/08/25 03:17:25;;;;;;;0.88;0.88;;;18.70;99.90;;;;;;4920452;29;20205;-72
2023/08/25 03:19:52;;;;;;;0.80;0.80;;;18.60;99.90;;;;;;4920440;29;20208;-72
2023/08/25 03:22:20;;;;;;;0.80;0.80;;;18.70;99.90;;;;;;4920332;29;20224;-72
2023/08/25 03:24:47;;;;;;;1.00;1.00;;;18.60;99.90;;;;;;4920419;29;20276;-72
2023/08/25 03:27:13;;;;;;;0.70;0.70;;;18.70;99.90;;;;;;4920247;29;20225;-72
2023/08/25 03:29:43;;;;;;;0.80;0.80;;;18.70;99.90;;;;;;4920249;29;20212;-72
2023/08/25 03:32:10;;;;;;;0.80;0.80;;;18.70;99.90;;;;;;4920243;29;20205;-72
2023/08/25 03:34:36;;;;;;;0.80;0.80;;;18.70;99.90;;;;;;4920190;29;20296;-72
2023/08/25 03:37:03;;;;;;;0.63;0.63;;;18.60;99.90;;;;;;4919792;29;20236;-72
2023/08/25 03:39:31;;;;;;;0.80;0.80;;;18.60;99.90;;;;;;4920101;29;20209;-72
2023/08/25 03:41:58;;;;;;;0.80;0.80;;;18.50;99.90;;;;;;4919958;29;20233;-72
2023/08/25 03:44:25;;;;;;;1.00;1.00;;;18.40;99.90;;;;;;4919674;29;20700;-72
2023/08/25 03:46:51;;;;;;;1.05;1.05;;;18.40;99.90;;;;;;4920793;29;20229;-72
2023/08/25 03:49:18;;;;;;;1.00;1.00;;;18.30;99.90;;;;;;4920183;29;20209;-72
2023/08/25 03:51:45;;;;;;;0.93;0.93;;;18.20;99.90;;;;;;4919894;29;20202;-72
2023/08/25 03:54:12;;;;;;;0.98;0.98;;;18.20;99.90;;;;;;4919863;29;20209;-72
2023/08/25 03:56:40;;;;;;;0.75;0.75;;;18.20;99.90;;;;;;4919327;29;20284;-72
2023/08/25 03:59:07;;;;;;;1.20;1.20;;;18.10;99.90;;;;;;4919716;29;20212;-72
2023/08/25 04:01:34;;;;;;;1.27;1.25;;;18.10;99.90;;;;;;4919605;29;20212;-72
2023/08/25 04:04:02;;;;;;;0.90;0.90;;;18.10;99.90;;;;;;4919631;29;20213;-72
2023/08/25 04:06:28;;;;;;;1.02;1.00;;;18.00;99.90;;;;;;4919619;29;20229;-72
2023/08/25 04:08:55;;;;;;;1.00;1.00;;;18.00;99.90;;;;;;4919599;29;20209;-72
2023/08/25 04:11:22;;;;;;;1.13;1.13;;;17.90;99.90;;;;;;4919530;29;20201;-72
2023/08/25 04:13:50;;;;;;;1.02;1.02;;;17.90;99.90;;;;;;4919160;29;20573;-72
2023/08/25 04:16:16;;;;;;;0.90;0.90;;;17.90;99.90;;;;;;4919384;29;20232;-72
2023/08/25 04:18:43;;;;;;;1.00;1.00;;;17.80;99.90;;;;;;4919366;29;20205;-72
2023/08/25 04:21:10;;;;;;;1.00;1.00;;;17.80;99.90;;;;;;4919044;29;20209;-72
2023/08/25 04:23:37;;;;;;;1.00;1.00;;;17.90;99.90;;;;;;4918854;29;20796;-72
2023/08/25 04:26:03;;;;;;;0.93;0.93;;;17.90;99.90;;;;;;4919145;29;20225;-72
2023/08/25 04:28:31;;;;;;;1.20;1.20;;;17.90;99.90;;;;;;4919226;29;20209;-71
2023/08/25 04:30:59;;;;;;;0.98;0.98;;;17.90;99.90;;;;;;4919085;29;20212;-71
2023/08/25 04:33:26;;;;;;;1.13;1.13;;;17.90;99.90;;;;;;4918826;29;20573;-72
2023/08/25 04:35:52;;;;;;;1.10;1.10;;;17.90;99.90;;;;;;4918823;29;20233;-73
2023/08/25 04:38:19;;;;;;;1.05;1.05;;;17.80;99.90;;;;;;4919097;29;20209;-72
2023/08/25 04:40:46;;;;;;;1.15;1.15;;;17.80;99.90;;;;;;4918949;29;20208;-72
2023/08/25 04:43:12;;;;;;;1.08;1.08;;;17.80;99.90;;;;;;4918906;29;20225;-72
2023/08/25 04:45:39;;;;;;;1.10;1.10;;;17.80;99.90;;;;;;4918844;29;20229;-72
2023/08/25 04:48:08;;;;;;;1.23;1.23;;;17.80;99.90;;;;;;4919141;29;20209;-73
2023/08/25 04:50:35;;;;;;;0.75;0.75;;;17.90;99.90;;;;;;4918832;29;20260;-72
2023/08/25 04:53:03;;;;;;;1.02;0.93;;;17.90;99.90;;;;;;4918440;29;20244;-72
2023/08/25 04:55:29;;;;;;;1.00;1.00;;;17.90;99.90;;;;;;4918694;29;20225;-72
2023/08/25 04:57:56;;;;;;;1.10;1.10;;;17.80;99.90;;;;;;4918412;29;20587;-72
2023/08/25 05:00:23;;;;;;;1.20;1.20;;;17.80;99.90;;;;;;4918628;29;20205;-72
2023/08/25 05:02:50;;;;;;;2.58;1.00;;;17.80;99.90;;;;;;4918515;29;20242;-72
2023/08/25 05:05:18;;;;;;;1.20;1.08;;;17.80;99.90;;;;;;4918525;29;20233;-73
2023/08/25 05:07:45;;;;;;;1.17;1.17;;;17.80;99.90;;;;;;4917728;29;20205;-73
2023/08/25 05:10:12;;;;;;;1.42;1.42;;;18.00;99.90;;;;;;4918537;29;20201;-73
2023/08/25 05:12:39;;;;;;;1.33;1.33;;;18.40;99.90;;;;;;4918147;29;20224;-73
2023/08/25 05:15:07;;;;;;;1.35;1.35;;;18.70;99.90;;;;;;4918234;29;20212;-73
2023/08/25 05:17:33;;;;;;;1.50;1.42;;;18.90;99.90;;;;;;4919033;29;20208;-73
2023/08/25 05:20:00;;;;;;;1.40;1.40;;;18.90;99.90;;;;;;4918313;29;20670;-73
2023/08/25 05:22:28;;;;;;;1.08;1.08;;;18.90;99.90;;;;;;4918090;29;20228;-72
2023/08/25 05:24:55;;;;;;;1.25;1.25;;;18.80;99.90;;;;;;4918085;29;20216;-72
2023/08/25 05:27:21;;;;;;;1.05;1.05;;;18.70;99.90;;;;;;4917965;29;20676;-73
2023/08/25 05:29:49;;;;;;;1.27;1.27;;;18.70;99.90;;;;;;4917830;29;20681;-73
2023/08/25 05:32:15;;;;;;;1.00;1.00;;;18.70;99.90;;;;;;4918006;29;20201;-74
2023/08/25 05:34:42;;;;;;;1.23;1.23;;;18.70;99.90;;;;;;4917950;29;20211;-72
2023/08/25 05:37:09;;;;;;;1.58;1.58;;;19.00;99.90;;;;;;4917647;29;20716;-72
2023/08/25 05:39:37;;;;;;;1.55;1.55;;;19.40;99.90;;;;;;4917900;29;20215;-73
2023/08/25 05:42:04;;;;;;;2.00;2.00;;;19.80;99.90;;;;;;4917558;29;20676;-73
2023/08/25 05:44:30;;;;;;;1.85;1.85;;;20.20;99.90;;;;;;4917777;29;20208;-73
2023/08/25 05:46:58;;;;;;;3.13;3.03;;;20.30;99.90;;;;;;4917730;29;20225;-74
2023/08/25 05:49:24;;;;;;;2.58;2.47;;;19.90;99.90;;;;;;4917736;29;20201;-74
2023/08/25 05:51:51;;;;;;;3.03;2.92;;;19.60;99.90;;;;;;4917823;29;20209;-74
2023/08/25 05:54:18;;;;;;;3.90;3.70;;;19.60;99.90;;;;;;4917689;29;20205;-74
2023/08/25 05:56:46;;;;;;;3.50;3.38;;;19.60;99.90;;;;;;4917366;29;20255;-75
2023/08/25 05:59:13;;;;;;;4.68;4.47;;;19.80;99.90;;;;;;4917647;29;20205;-74
2023/08/25 06:01:40;;;;;;;6.38;5.82;;;19.80;99.90;;;;;;4917620;29;20205;-74
2023/08/25 06:04:07;;;;;;;10.75;9.82;;;20.60;99.90;;;;;;4917561;29;20224;-74
2023/08/25 06:06:34;;;;;;;11.02;10.13;;;21.40;99.90;;;;;;4917490;29;20225;-74
2023/08/25 06:09:01;;;;;;;9.93;9.13;;;22.60;99.90;;;;;;4917310;29;20212;-75
2023/08/25 06:11:28;;;;;;;8.18;7.47;;;22.50;99.90;;;;;;4917297;29;20212;-75
2023/08/25 06:13:56;;;;;;;7.28;6.70;;;22.50;99.90;;;;;;4917315;29;20546;-76
2023/08/25 06:16:23;;;;;;;6.55;6.05;;;22.90;99.90;;;;;;4917244;29;20224;-75
2023/08/25 06:18:50;;;;;;;4.05;3.85;;;23.40;99.90;;;;;;4917080;29;20205;-75
2023/08/25 06:21:16;;;;;;;3.10;2.88;;;23.00;99.90;;;;;;4917324;29;20219;-76
2023/08/25 06:23:43;;;;;;;3.38;3.28;;;22.40;99.90;;;;;;4917119;29;20231;-76
2023/08/25 06:26:10;;;;;;;3.53;3.40;;;21.80;99.90;;;;;;4917191;29;20231;-76
2023/08/25 06:28:36;;;;;;;3.58;3.38;;;21.90;99.90;;;;;;4917207;29;20212;-75
2023/08/25 06:31:05;;;;;;;3.35;2.67;;;22.30;99.90;;;;;;4920389;29;20200;-76
2023/08/25 06:33:32;;;;;;;2.67;2.60;;;22.10;99.90;;;;;;4920579;29;20205;-76
2023/08/25 06:35:59;;;;;;;2.42;2.33;;;21.90;99.90;;;;;;4920141;29;20238;-76
2023/08/25 06:38:25;;;;;;;2.17;2.17;;;21.60;99.90;;;;;;4920400;29;20217;-75
2023/08/25 06:40:54;;;;;;;1.83;1.83;;;21.20;99.90;;;;;;4920182;29;20205;-75
2023/08/25 06:43:21;;;;;;;1.67;1.67;;;21.00;99.90;;;;;;4920332;29;20233;-75
2023/08/25 06:45:48;;;;;;;2.35;1.48;;;20.80;99.90;;;;;;4920222;29;20236;-76
2023/08/25 06:48:16;;;;;;;1.48;1.48;;;20.80;99.90;;;;;;4920408;29;20731;-76
2023/08/25 06:50:43;;;;;;;1.33;1.33;;;20.80;99.90;;;;;;4920525;29;20215;-76
2023/08/25 06:53:10;;;;;;;1.80;1.80;;;20.80;99.90;;;;;;4920612;29;20227;-76
2023/08/25 06:55:36;;;;;;;2.55;2.20;;;20.60;99.90;;;;;;4921221;29;20228;-76
2023/08/25 06:58:05;;;;;;;2.92;2.70;;;20.40;99.90;;;;;;4920184;29;20213;-75
2023/08/25 07:00:32;;;;;;;2.25;2.15;;;20.10;99.90;;;;;;4920350;29;20219;-76
2023/08/25 07:03:00;;;;;;;2.70;2.50;;;19.90;99.90;;;;;;4920054;29;20221;-76
2023/08/25 07:05:28;;;;;;;3.15;3.05;;;19.80;99.90;;;;;;4920193;29;20224;-75
2023/08/25 07:07:54;;;;;;;3.17;3.00;;;19.60;99.90;;;;;;4920189;29;20209;-77
2023/08/25 07:10:21;;;;;;;3.40;3.10;;;19.40;99.90;;;;;;4920228;29;20215;-75
2023/08/25 07:12:48;;;;;;;2.55;2.42;;;19.40;99.90;;;;;;4918468;29;20201;-76
2023/08/25 07:15:15;;;;;;;2.90;2.80;;;19.40;99.90;;;;;;4916873;29;20229;-76
2023/08/25 07:17:41;;;;;;;2.70;2.60;;;19.40;99.90;;;;;;4916928;29;20216;-76
2023/08/25 07:20:09;;;;;;;2.55;2.45;;;19.40;99.90;;;;;;4916565;29;20699;-75
2023/08/25 07:22:37;;;;;;;2.88;2.78;;;19.30;99.90;;;;;;4916698;29;20209;-76
2023/08/25 07:25:05;;;;;;;3.17;2.95;;;19.30;99.90;;;;;;4916739;29;20208;-76
2023/08/25 07:27:31;;;;;;;3.88;3.47;;;19.20;99.90;;;;;;4916735;29;20234;-75
2023/08/25 07:29:59;;;;;;;3.90;3.70;;;19.20;99.90;;;;;;4917339;29;20216;-76
2023/08/25 07:32:26;;;;;;;3.90;3.67;;;19.30;99.90;;;;;;4919996;29;20212;-76
2023/08/25 07:34:52;;;;;;;7.05;4.40;;;19.20;99.90;;;;;;4920272;29;20677;-75
2023/08/25 07:37:19;;;;;;;4.43;4.00;;;19.00;99.90;;;;;;4920406;29;20220;-74
2023/08/25 07:39:52;;;;;;;3.78;3.47;;;18.90;99.90;;;;;;4919987;29;20231;-74
2023/08/25 07:42:21;;;;;;;4.15;3.85;;;19.00;99.90;;;;;;4920003;29;20197;-74
2023/08/25 07:44:48;;;;;;;3.28;3.17;;;19.10;99.90;;;;;;4919939;29;20310;-75
2023/08/25 07:47:15;;;;;;;5.82;4.43;;;19.20;99.90;;;;;;4920022;29;20224;-75
2023/08/25 07:49:43;;;;;;;5.03;4.53;;;19.10;99.90;;;;;;4919870;29;20216;-74
2023/08/25 07:52:09;;;;;;;4.75;4.25;;;18.90;99.90;;;;;;4920190;29;20294;-75
2023/08/25 07:54:39;;;;;;;4.75;4.35;;;19.00;99.90;;;;;;4920939;29;20204;-75
2023/08/25 07:57:07;;;;;;;5.90;5.50;;;19.20;99.90;;;;;;4920344;29;20225;-75
2023/08/25 07:59:34;;;;;;;4.68;4.38;;;19.20;99.90;;;;;;4919400;29;20621;-75
2023/08/25 08:02:01;;;;;;;5.28;4.97;;;19.50;99.90;;;;;;4919703;29;20204;-75
2023/08/25 08:04:30;;;;;;;5.65;5.25;;;19.50;99.90;;;;;;4919861;29;20228;-75
2023/08/25 08:06:57;;;;;;;5.03;4.65;;;20.00;99.90;;;;;;4921282;29;20224;-76
2023/08/25 08:09:25;;;;;;;4.82;4.53;;;20.00;99.90;;;;;;4921328;29;20209;-76
2023/08/25 08:11:53;;;;;;;4.25;3.90;;;19.90;99.90;;;;;;4921478;29;20292;-74
2023/08/25 08:14:21;;;;;;;5.00;4.50;;;20.00;99.90;;;;;;4921297;29;20204;-76
2023/08/25 08:16:47;;;;;;;5.65;4.53;;;20.70;99.90;;;;;;4921987;29;20360;-76
2023/08/25 08:19:14;;;;;;;4.97;4.57;;;20.70;99.90;;;;;;4922262;29;20185;-76
2023/08/25 08:21:41;;;;;;;4.53;4.22;;;21.30;99.90;;;;;;4922114;29;20205;-75
2023/08/25 08:24:09;;;;;;;4.07;3.83;;;21.40;99.90;;;;;;4921703;29;20588;-76
2023/08/25 08:26:36;;;;;;;2.55;2.53;;;21.50;99.90;;;;;;4921544;29;20225;-76
2023/08/25 08:29:03;;;;;;;2.42;2.42;;;21.70;99.90;;;;;;4921568;29;20205;-76
2023/08/25 08:31:31;;;;;;;2.65;2.55;;;21.70;99.90;;;;;;4921520;29;20204;-76
2023/08/25 08:33:58;;;;;;;2.22;2.13;;;21.90;99.90;;;;;;4921627;29;20201;-76
2023/08/25 08:36:24;;;;;;;1.80;1.80;;;21.70;99.90;;;;;;4920986;29;20624;-76
2023/08/25 08:38:52;;;;;;;1.92;1.92;;;21.90;99.90;;;;;;4921567;29;20205;-76
2023/08/25 08:41:19;;;;;;;1.75;1.75;;;22.10;99.90;;;;;;4920431;29;20619;-76
2023/08/25 08:43:46;;;;;;;1.77;1.67;;;22.30;99.90;;;;;;4920793;29;20252;-76
2023/08/25 08:46:15;;;;;;;2.10;2.00;;;22.40;99.90;;;;;;4921209;29;20235;-76
2023/08/25 08:48:44;;;;;;;1.92;1.92;;;22.70;99.90;;;;;;4919549;29;20248;-76
2023/08/25 08:51:11;;;;;;;1.52;1.52;;;22.80;99.90;;;;;;4918913;29;20208;-76
2023/08/25 08:53:38;;;;;;;2.15;2.10;;;23.10;99.90;;;;;;4918838;29;20205;-76
2023/08/25 08:56:06;;;;;;;2.22;2.13;;;23.30;99.90;;;;;;4918767;29;20232;-76
2023/08/25 08:58:33;;;;;;;2.13;2.05;;;23.40;99.90;;;;;;4918978;29;20205;-76
2023/08/25 09:01:00;;;;;;;1.63;1.63;;;23.80;99.90;;;;;;4919277;29;20205;-77
2023/08/25 09:03:33;;;;;;;1.60;1.52;;;23.60;99.90;;;;;;4919155;29;20221;-78
2023/08/25 09:06:04;;;;;;;1.73;1.73;;;23.40;99.90;;;;;;4919429;29;20225;-78
2023/08/25 09:08:31;;;;;;;2.17;2.05;;;23.30;99.90;;;;;;4919685;29;20245;-77
2023/08/25 09:11:00;;;;;;;2.05;2.05;;;23.60;99.90;;;;;;4919373;29;20201;-77
2023/08/25 09:13:27;;;;;;;2.15;2.15;;;23.90;99.90;;;;;;4919446;29;20212;-77
2023/08/25 09:15:54;;;;;;;2.17;2.08;;;24.20;99.90;;;;;;4920960;29;20225;-78
2023/08/25 09:18:21;;;;;;;2.20;2.10;;;24.50;99.90;;;;;;4919332;29;20244;-77
2023/08/25 09:20:48;;;;;;;2.00;1.90;;;24.50;99.90;;;;;;4918590;29;20205;-77
2023/08/25 09:23:16;;;;;;;2.00;2.00;;;24.40;99.90;;;;;;4918500;29;20260;-77
2023/08/25 09:25:44;;;;;;;2.25;2.15;;;24.50;99.90;;;;;;4918454;29;20663;-77
2023/08/25 09:28:11;;;;;;;2.38;2.25;;;24.50;99.90;;;;;;4919438;29;20205;-75
2023/08/25 09:30:39;;;;;;;1.83;1.83;;;24.50;99.90;;;;;;4918939;29;20228;-77
2023/08/25 09:33:07;;;;;;;1.90;1.90;;;24.60;99.90;;;;;;4917821;29;20572;-75
2023/08/25 09:35:34;;;;;;;1.85;1.85;;;24.80;99.90;;;;;;4917783;29;20229;-75
2023/08/25 09:38:01;;;;;;;1.63;1.63;;;24.90;99.90;;;;;;4918049;29;20201;-76
2023/08/25 09:40:31;;;;;;;1.73;1.73;;;25.10;99.90;;;;;;4918396;29;20204;-76
2023/08/25 09:42:59;;;;;;;1.58;1.58;;;25.20;99.90;;;;;;4918027;29;20211;-76
2023/08/25 09:45:28;;;;;;;1.73;1.73;;;25.30;99.90;;;;;;4917871;29;20228;-76
2023/08/25 09:47:55;;;;;;;1.60;1.60;;;25.40;99.90;;;;;;4917932;29;20610;-76
2023/08/25 09:50:23;;;;;;;1.67;1.67;;;25.60;99.90;;;;;;4918007;29;20587;-76
2023/08/25 09:52:53;;;;;;;1.48;1.48;;;25.80;99.90;;;;;;4917805;29;20205;-76
2023/08/25 09:55:20;;;;;;;1.95;1.95;;;25.90;99.90;;;;;;4917454;29;20273;-76
2023/08/25 09:57:49;;;;;;;1.70;1.70;;;26.00;99.90;;;;;;4918356;29;20208;-76
2023/08/25 10:00:16;;;;;;;1.73;1.63;;;26.10;99.90;;;;;;4918523;29;20237;-77
2023/08/25 10:02:44;;;;;;;1.63;1.63;;;26.20;99.90;;;;;;4918252;29;20209;-77
2023/08/25 10:05:12;;;;;;;1.85;1.85;;;26.30;99.90;;;;;;4917702;29;20696;-77
2023/08/25 10:07:41;;;;;;;1.92;1.92;;;26.30;99.90;;;;;;4917776;29;20205;-77
2023/08/25 10:10:09;;;;;;;1.80;1.80;;;26.40;99.90;;;;;;4918528;29;20216;-77
2023/08/25 10:12:37;;;;;;;1.55;1.55;;;26.40;99.90;;;;;;4918921;29;20201;-77
2023/08/25 10:15:09;;;;;;;1.58;1.58;;;26.50;99.90;;;;;;4918465;29;20205;-77
2023/08/25 10:17:37;;;;;;;1.35;1.35;;;26.70;99.90;;;;;;4918785;29;20598;-77
2023/08/25 10:20:08;;;;;;;1.45;1.45;;;27.00;99.90;;;;;;4917955;29;20677;-77
2023/08/25 10:22:35;;;;;;;1.33;1.33;;;27.20;99.90;;;;;;4918054;29;20200;-77
2023/08/25 10:25:03;;;;;;;1.73;1.65;;;27.40;99.90;;;;;;4917585;29;20224;-74
2023/08/25 10:27:31;;;;;;;1.40;1.40;;;27.50;99.90;;;;;;4917523;29;20227;-74
2023/08/25 10:30:00;;;;;;;1.98;1.88;;;27.50;99.90;;;;;;4917459;29;20204;-76
2023/08/25 10:32:49;;;;;;;1.60;1.60;;;27.50;99.90;;;;;;4918236;29;20208;-76
2023/08/25 10:35:16;;;;;;;1.85;1.85;;;27.50;99.90;;;;;;4917586;29;20312;-75
2023/08/25 10:37:43;;;;;;;2.10;2.00;;;27.60;99.90;;;;;;4918439;29;20189;-74
2023/08/25 10:40:11;;;;;;;2.47;2.30;;;27.60;99.90;;;;;;4917207;29;20592;-74
2023/08/25 10:42:37;;;;;;;2.30;2.20;;;27.60;99.90;;;;;;4917587;29;20209;-73
2023/08/25 10:45:06;;;;;;;2.25;2.20;;;27.30;99.90;;;;;;4917396;29;20225;-73
2023/08/25 10:47:41;;;;;;;2.35;2.25;;;27.20;99.90;;;;;;4917662;29;20244;-73
2023/08/25 10:50:10;;;;;;;2.30;2.22;;;27.00;99.90;;;;;;4917562;29;20279;-74
2023/08/25 10:52:42;;;;;;;2.42;2.33;;;26.90;99.90;;;;;;4917003;29;20565;-74
2023/08/25 10:55:26;;;;;;;2.40;2.30;;;26.70;99.90;;;;;;4917326;29;20189;-73
2023/08/25 10:57:53;;;;;;;2.63;2.53;;;26.50;99.90;;;;;;4917340;29;20255;-74
2023/08/25 11:00:28;;;;;;;2.53;2.42;;;26.30;99.90;;;;;;4916940;29;20205;-74
2023/08/25 11:02:56;;;;;;;2.90;2.80;;;26.30;99.90;;;;;;4917256;29;20246;-74
2023/08/25 11:05:40;;;;;;;3.63;3.33;;;26.20;99.90;;;;;;4918271;29;20276;-74
2023/08/25 11:08:25;;;;;;;3.05;2.95;;;26.10;99.90;;;;;;4920939;29;20241;-73
2023/08/25 11:11:10;;;;;;;3.28;3.08;;;25.90;99.90;;;;;;4920933;29;20193;-73
2023/08/25 11:13:39;;;;;;;3.30;3.00;;;25.70;99.90;;;;;;4921141;29;20189;-73
2023/08/25 11:16:08;;;;;;;2.65;2.55;;;25.70;99.90;;;;;;4920294;29;20296;-72
2023/08/25 11:18:34;;;;;;;3.40;3.20;;;25.60;99.90;;;;;;4920191;29;20213;-74
2023/08/25 11:21:04;;;;;;;3.28;3.00;;;25.50;99.90;;;;;;4920783;29;20201;-74
2023/08/25 11:23:41;;;;;;;3.15;2.95;;;25.50;99.90;;;;;;4920473;29;20211;-73
2023/08/25 11:26:08;;;;;;;2.85;2.70;;;25.40;99.90;;;;;;4920635;29;20235;-72
2023/08/25 11:28:36;;;;;;;3.63;3.42;;;25.40;99.90;;;;;;4920384;29;20240;-72
2023/08/25 11:31:04;;;;;;;3.13;2.95;;;25.40;99.90;;;;;;4920361;29;20205;-73
2023/08/25 11:33:32;;;;;;;3.03;2.83;;;25.50;99.90;;;;;;4921080;29;20205;-73
2023/08/25 11:35:59;;;;;;;2.88;2.78;;;25.40;99.90;;;;;;4920008;29;20315;-73
2023/08/25 11:38:29;;;;;;;2.78;2.67;;;25.50;99.90;;;;;;4921231;29;20240;-74
2023/08/25 11:40:56;;;;;;;3.05;2.80;;;25.60;99.90;;;;;;4921587;29;20189;-72
2023/08/25 11:43:28;;;;;;;2.95;2.83;;;25.60;99.90;;;;;;4921476;29;20208;-72
2023/08/25 11:45:55;;;;;;;3.40;3.20;;;25.80;99.90;;;;;;4921614;29;20232;-72
2023/08/25 11:48:22;;;;;;;2.92;2.70;;;25.80;99.90;;;;;;4921056;29;20677;-72
2023/08/25 11:50:49;;;;;;;2.70;2.60;;;25.90;99.90;;;;;;4922039;29;20272;-73
2023/08/25 11:53:16;;;;;;;3.20;3.10;;;25.90;99.90;;;;;;4922373;29;20205;-73
2023/08/25 11:55:58;;;;;;;3.50;3.20;;;26.10;99.90;;;;;;4921309;29;20225;-72
2023/08/25 11:58:29;;;;;;;3.00;2.85;;;26.20;99.90;;;;;;4921283;29;20196;-71
2023/08/25 12:01:00;;;;;;;3.03;2.83;;;26.30;99.90;;;;;;4921738;29;20189;-72
2023/08/25 12:03:27;;;;;;;2.72;2.63;;;26.40;99.90;;;;;;4922236;29;20194;-72
2023/08/25 12:05:54;;;;;;;3.00;2.80;;;26.50;99.90;;;;;;4921688;29;20239;-72
2023/08/25 12:08:20;;;;;;;2.60;2.50;;;26.60;99.90;;;;;;4921057;29;20260;-73
2023/08/25 12:10:48;;;;;;;2.53;2.42;;;26.70;99.90;;;;;;4920969;29;20213;-72
2023/08/25 12:13:15;;;;;;;4.40;3.00;;;26.80;99.90;;;;;;4921298;29;20216;-74
2023/08/25 12:15:44;;;;;;;3.17;2.97;;;26.70;99.90;;;;;;4920681;29;20221;-73
2023/08/25 12:18:13;;;;;;;2.78;2.67;;;26.60;99.90;;;;;;4920805;29;20204;-73
2023/08/25 12:20:43;;;;;;;3.47;3.22;;;26.50;99.90;;;;;;4920449;29;20215;-73
2023/08/25 12:23:10;;;;;;;2.97;2.78;;;26.50;99.90;;;;;;4919690;29;20613;-72
2023/08/25 12:25:36;;;;;;;2.92;2.72;;;26.50;99.90;;;;;;4919289;29;20229;-74
2023/08/25 12:28:05;;;;;;;2.65;2.55;;;26.50;99.90;;;;;;4919611;29;20209;-73
2023/08/25 12:30:32;;;;;;;3.00;2.90;;;26.50;99.90;;;;;;4920386;29;20209;-73
2023/08/25 12:32:59;;;;;;;2.70;2.60;;;26.40;99.90;;;;;;4920260;29;20298;-73
2023/08/25 12:35:25;;;;;;;3.05;2.95;;;26.20;99.90;;;;;;4920343;29;20233;-73
2023/08/25 12:37:52;;;;;;;3.22;3.13;;;25.90;99.90;;;;;;4919355;29;20195;-73
2023/08/25 12:40:20;;;;;;;2.90;2.80;;;25.70;99.90;;;;;;4919281;29;20209;-73
2023/08/25 12:42:48;;;;;;;2.83;2.72;;;25.60;99.90;;;;;;4919116;29;20204;-73
2023/08/25 12:45:16;;;;;;;2.92;2.72;;;25.50;99.90;;;;;;4918980;29;20252;-73
2023/08/25 12:47:43;;;;;;;2.80;2.70;;;25.40;99.90;;;;;;4919129;29;20205;-73
2023/08/25 12:50:10;;;;;;;2.90;2.80;;;25.40;99.90;;;;;;4919359;29;20640;-73